createdAt,value
2022-12-23T00:01:24.800Z,10.50
2022-12-23T00:03:53.126Z,10.50
2022-12-23T00:06:22.080Z,10.60
2022-12-23T00:08:58.611Z,10.60
2022-12-23T00:11:28.834Z,10.60
2022-12-23T00:14:20.517Z,10.70
2022-12-23T00:16:49.917Z,10.70
2022-12-23T00:19:18.460Z,10.70
2022-12-23T00:21:46.976Z,10.80
2022-12-23T00:24:17.623Z,10.80
2022-12-23T00:26:45.680Z,10.80
2022-12-23T00:29:13.756Z,10.80
2022-12-23T00:31:41.870Z,10.80
2022-12-23T00:34:11.774Z,10.80
2022-12-23T00:36:40.787Z,11.70
2022-12-23T00:39:30.420Z,11.00
2022-12-23T00:42:17.237Z,11.00
2022-12-23T00:44:45.352Z,11.10
2022-12-23T00:47:34.091Z,11.10
2022-12-23T00:50:01.143Z,11.10
2022-12-23T00:52:31.642Z,11.10
2022-12-23T00:54:59.792Z,10.70
2022-12-23T00:57:29.360Z,11.30
2022-12-23T00:59:57.465Z,11.10
2022-12-23T01:02:43.991Z,11.20
2022-12-23T01:05:29.328Z,11.10
2022-12-23T01:07:57.428Z,11.20
2022-12-23T01:10:25.849Z,11.20
2022-12-23T01:12:55.462Z,11.20
2022-12-23T01:15:23.829Z,11.40
2022-12-23T01:17:51.947Z,11.20
2022-12-23T01:20:20.164Z,11.20
2022-12-23T01:22:48.323Z,11.20
2022-12-23T01:25:17.600Z,11.30
2022-12-23T01:27:45.679Z,11.20
2022-12-23T01:30:15.912Z,11.20
2022-12-23T01:32:44.079Z,11.10
2022-12-23T01:35:12.507Z,11.10
2022-12-23T01:37:43.425Z,11.10
2022-12-23T01:40:12.531Z,11.00
2022-12-23T01:42:46.506Z,11.00
2022-12-23T01:45:19.912Z,10.90
2022-12-23T01:47:53.575Z,10.80
2022-12-23T01:50:24.992Z,10.80
2022-12-23T01:53:06.438Z,10.80
2022-12-23T01:55:41.425Z,10.80
2022-12-23T01:58:13.079Z,10.70
2022-12-23T02:01:01.018Z,10.90
2022-12-23T02:03:45.095Z,10.70
2022-12-23T02:06:38.859Z,10.60
2022-12-23T02:09:17.984Z,10.60
2022-12-23T02:12:10.857Z,10.60
2022-12-23T02:15:08.326Z,10.70
2022-12-23T02:17:49.903Z,10.70
2022-12-23T02:20:52.690Z,10.70
2022-12-23T02:23:58.086Z,10.70
2022-12-23T02:27:00.110Z,10.70
2022-12-23T02:30:07.026Z,10.70
2022-12-23T02:32:46.621Z,10.70
2022-12-23T02:35:22.189Z,10.80
2022-12-23T02:37:54.505Z,10.70
2022-12-23T02:40:35.185Z,10.70
2022-12-23T02:43:08.378Z,10.70
2022-12-23T02:45:41.130Z,10.80
2022-12-23T02:48:14.820Z,10.80
2022-12-23T02:50:46.273Z,10.70
2022-12-23T02:53:20.191Z,10.80
2022-12-23T02:55:51.513Z,10.80
2022-12-23T02:58:24.009Z,10.80
2022-12-23T03:00:52.651Z,10.90
2022-12-23T03:03:22.436Z,11.20
2022-12-23T03:05:52.430Z,10.80
2022-12-23T03:08:25.165Z,10.80
2022-12-23T03:11:08.376Z,10.70
2022-12-23T03:13:49.721Z,10.70
2022-12-23T03:16:23.662Z,10.70
2022-12-23T03:19:11.149Z,10.70
2022-12-23T03:21:43.922Z,10.70
2022-12-23T03:24:23.806Z,10.70
2022-12-23T03:26:56.825Z,10.60
2022-12-23T03:29:31.124Z,10.60
2022-12-23T03:32:01.489Z,10.70
2022-12-23T03:34:37.240Z,10.60
2022-12-23T03:37:09.044Z,10.60
2022-12-23T03:39:42.991Z,10.60
2022-12-23T03:42:16.501Z,10.50
2022-12-23T03:45:19.162Z,10.60
2022-12-23T03:47:45.279Z,10.60
2022-12-23T03:50:18.335Z,10.60
2022-12-23T03:52:53.162Z,10.60
2022-12-23T03:55:27.493Z,10.60
2022-12-23T03:58:03.108Z,10.60
2022-12-23T04:00:36.976Z,10.60
2022-12-23T04:03:11.719Z,10.60
2022-12-23T04:05:42.940Z,10.60
2022-12-23T04:08:14.776Z,10.60
2022-12-23T04:10:43.165Z,10.60
2022-12-23T04:13:11.329Z,10.60
2022-12-23T04:15:41.679Z,10.60
2022-12-23T04:18:11.571Z,10.60
2022-12-23T04:20:41.161Z,10.60
2022-12-23T04:23:09.315Z,10.60
2022-12-23T04:25:37.451Z,10.60
2022-12-23T04:28:05.867Z,10.60
2022-12-23T04:30:35.074Z,10.60
2022-12-23T04:33:04.028Z,10.60
2022-12-23T04:35:32.517Z,10.60
2022-12-23T04:38:02.613Z,10.60
2022-12-23T04:40:30.740Z,10.60
2022-12-23T04:42:58.942Z,10.60
2022-12-23T04:45:27.114Z,10.60
2022-12-23T04:47:55.476Z,10.80
2022-12-23T04:50:23.542Z,10.60
2022-12-23T04:52:51.720Z,10.60
2022-12-23T04:55:21.292Z,10.60
2022-12-23T04:57:49.391Z,10.60
2022-12-23T05:00:18.371Z,10.60
2022-12-23T05:02:46.620Z,10.60
2022-12-23T05:05:14.784Z,10.60
2022-12-23T05:07:42.872Z,10.60
2022-12-23T05:10:11.982Z,10.60
2022-12-23T05:12:41.415Z,10.60
2022-12-23T05:15:10.629Z,10.60
2022-12-23T05:17:38.776Z,10.60
2022-12-23T05:20:08.165Z,11.00
2022-12-23T05:22:36.281Z,10.60
2022-12-23T05:25:04.649Z,10.60
2022-12-23T05:27:32.756Z,10.60
2022-12-23T05:30:02.186Z,10.90
2022-12-23T05:32:30.300Z,10.80
2022-12-23T05:34:58.405Z,10.60
2022-12-23T05:37:27.011Z,10.60
2022-12-23T05:39:55.101Z,10.60
2022-12-23T05:42:23.204Z,10.60
2022-12-23T05:44:51.299Z,10.50
2022-12-23T05:47:20.786Z,10.60
2022-12-23T05:49:48.824Z,10.60
2022-12-23T05:52:16.873Z,10.60
2022-12-23T05:54:44.999Z,11.30
2022-12-23T05:57:13.134Z,10.60
2022-12-23T05:59:41.446Z,10.60
2022-12-23T06:02:09.817Z,10.70
2022-12-23T06:04:39.401Z,10.50
2022-12-23T06:07:07.628Z,10.60
2022-12-23T06:09:36.045Z,10.80
2022-12-23T06:12:04.147Z,10.60
2022-12-23T06:14:32.268Z,10.60
2022-12-23T06:17:00.760Z,10.60
2022-12-23T06:19:28.872Z,10.60
2022-12-23T06:21:58.287Z,10.60
2022-12-23T06:24:28.807Z,10.60
2022-12-23T06:26:57.587Z,10.60
2022-12-23T06:29:26.127Z,10.60
2022-12-23T06:31:54.276Z,10.70
2022-12-23T06:34:22.450Z,10.70
2022-12-23T06:36:50.802Z,10.80
2022-12-23T06:39:20.330Z,10.60
2022-12-23T06:41:48.412Z,10.80
2022-12-23T06:44:16.534Z,10.60
2022-12-23T06:46:44.731Z,10.70
2022-12-23T06:49:13.877Z,10.70
2022-12-23T06:51:43.010Z,10.70
2022-12-23T06:54:12.678Z,10.70
2022-12-23T06:56:42.155Z,10.70
2022-12-23T06:59:10.272Z,10.70
2022-12-23T07:01:38.597Z,10.70
2022-12-23T07:04:06.915Z,10.60
2022-12-23T07:06:34.956Z,10.80
2022-12-23T07:09:02.983Z,10.60
2022-12-23T07:11:31.131Z,10.90
2022-12-23T07:14:00.565Z,10.50
2022-12-23T07:16:28.623Z,10.50
2022-12-23T07:18:57.165Z,10.40
2022-12-23T07:21:29.479Z,10.40
2022-12-23T07:23:58.189Z,10.30
2022-12-23T07:26:26.710Z,10.30
2022-12-23T07:28:55.097Z,10.40
2022-12-23T07:31:24.779Z,10.20
2022-12-23T07:33:52.913Z,10.20
2022-12-23T07:36:23.833Z,10.20
2022-12-23T07:38:52.268Z,10.10
2022-12-23T07:41:20.395Z,10.10
2022-12-23T07:43:48.441Z,10.10
2022-12-23T07:46:16.583Z,10.10
2022-12-23T07:48:46.129Z,10.10
2022-12-23T07:51:14.433Z,10.70
2022-12-23T07:53:42.778Z,10.20
2022-12-23T07:56:10.834Z,10.20
2022-12-23T07:58:38.929Z,10.20
2022-12-23T08:01:08.922Z,10.30
2022-12-23T08:03:37.786Z,10.30
2022-12-23T08:06:09.412Z,10.40
2022-12-23T08:08:38.336Z,10.50
2022-12-23T08:11:09.448Z,10.60
2022-12-23T08:13:39.376Z,10.70
2022-12-23T08:16:08.706Z,10.80
2022-12-23T08:18:39.381Z,10.80
2022-12-23T08:21:11.457Z,10.90
2022-12-23T08:23:39.568Z,11.10
2022-12-23T08:26:09.779Z,11.10
2022-12-23T08:28:38.994Z,11.10
2022-12-23T08:31:09.811Z,11.20
2022-12-23T08:33:39.295Z,11.20
2022-12-23T08:36:10.871Z,11.20
2022-12-23T08:38:38.985Z,11.30
2022-12-23T08:41:10.862Z,11.20
2022-12-23T08:43:39.392Z,11.20
2022-12-23T08:46:08.778Z,11.20
2022-12-23T08:48:38.042Z,11.20
2022-12-23T08:51:09.284Z,11.20
2022-12-23T08:53:38.862Z,11.20
2022-12-23T08:56:09.085Z,11.30
2022-12-23T08:58:39.122Z,11.30
2022-12-23T09:01:10.283Z,11.30
2022-12-23T09:03:44.242Z,11.30
2022-12-23T09:06:16.339Z,11.40
2022-12-23T09:08:44.740Z,11.50
2022-12-23T09:11:19.854Z,11.40
2022-12-23T09:13:51.185Z,11.70
2022-12-23T09:16:19.619Z,11.40
2022-12-23T09:18:47.621Z,11.50
2022-12-23T09:21:18.633Z,11.40
2022-12-23T09:23:47.088Z,11.50
2022-12-23T09:26:18.904Z,11.70
2022-12-23T09:28:46.892Z,11.40
2022-12-23T09:31:15.143Z,11.40
2022-12-23T09:33:43.778Z,11.40
2022-12-23T09:36:11.740Z,11.40
2022-12-23T09:38:42.443Z,11.50
2022-12-23T09:41:22.948Z,11.40
2022-12-23T09:43:57.947Z,11.40
2022-12-23T09:46:30.899Z,11.40
2022-12-23T09:49:04.238Z,11.40
2022-12-23T09:51:34.233Z,11.40
2022-12-23T09:54:14.951Z,11.50
2022-12-23T09:56:52.234Z,11.50
2022-12-23T09:59:32.408Z,11.50
2022-12-23T10:02:09.143Z,11.50
2022-12-23T10:04:43.327Z,11.50
2022-12-23T10:07:23.685Z,11.80
2022-12-23T10:09:56.144Z,11.60
2022-12-23T10:12:39.499Z,11.60
2022-12-23T10:15:21.229Z,11.50
2022-12-23T10:17:53.632Z,11.60
2022-12-23T10:20:30.965Z,11.60
2022-12-23T10:23:00.667Z,11.60
2022-12-23T10:25:36.240Z,11.70
2022-12-23T10:28:04.679Z,11.90
2022-12-23T10:30:57.368Z,11.60
2022-12-23T10:33:25.258Z,11.70
2022-12-23T10:36:03.696Z,11.80
2022-12-23T10:38:54.809Z,11.80
2022-12-23T10:41:35.820Z,11.80
2022-12-23T10:44:22.573Z,11.80
2022-12-23T10:47:01.071Z,11.90
2022-12-23T10:49:36.868Z,12.00
2022-12-23T10:52:12.699Z,12.00
2022-12-23T10:54:44.784Z,12.00
2022-12-23T10:57:16.484Z,12.00
2022-12-23T10:59:44.863Z,12.10
2022-12-23T11:02:35.742Z,12.10
2022-12-23T11:05:04.057Z,12.10
2022-12-23T11:07:47.596Z,12.10
2022-12-23T11:10:18.960Z,12.20
2022-12-23T11:12:51.800Z,12.20
2022-12-23T11:15:29.847Z,12.20
2022-12-23T11:18:06.518Z,12.20
2022-12-23T11:20:36.561Z,12.20
2022-12-23T11:23:06.814Z,12.30
2022-12-23T11:25:41.385Z,12.20
2022-12-23T11:28:16.596Z,12.20
2022-12-23T11:30:56.656Z,12.30
2022-12-23T11:33:27.560Z,12.30
2022-12-23T11:36:03.788Z,12.30
2022-12-23T11:38:34.772Z,12.30
2022-12-23T11:41:04.109Z,12.20
2022-12-23T11:43:34.810Z,12.20
2022-12-23T11:46:16.452Z,12.10
2022-12-23T11:48:46.595Z,12.10
2022-12-23T11:51:27.703Z,12.10
2022-12-23T11:54:02.012Z,12.20
2022-12-23T11:56:35.509Z,12.10
2022-12-23T11:59:08.591Z,12.00
2022-12-23T12:01:39.328Z,12.10
2022-12-23T12:04:10.276Z,12.00
2022-12-23T12:06:47.311Z,12.00
2022-12-23T12:09:19.940Z,12.00
2022-12-23T12:11:51.471Z,11.90
2022-12-23T12:14:26.437Z,11.90
2022-12-23T12:16:59.591Z,11.90
2022-12-23T12:19:34.496Z,12.00
2022-12-23T12:22:07.061Z,11.90
2022-12-23T12:24:41.505Z,11.90
2022-12-23T12:27:12.067Z,12.20
2022-12-23T12:29:48.128Z,12.00
2022-12-23T12:32:22.498Z,12.00
2022-12-23T12:34:55.754Z,12.30
2022-12-23T12:37:37.003Z,12.10
2022-12-23T12:40:13.857Z,12.00
2022-12-23T12:42:47.840Z,12.10
2022-12-23T12:45:23.028Z,12.10
2022-12-23T12:48:13.106Z,12.10
2022-12-23T12:50:55.504Z,12.20
2022-12-23T12:53:24.757Z,12.30
2022-12-23T12:55:58.478Z,12.30
2022-12-23T12:58:27.179Z,12.30
2022-12-23T13:01:11.806Z,12.30
2022-12-23T13:04:05.703Z,12.40
2022-12-23T13:06:42.261Z,12.40
2022-12-23T13:09:22.594Z,12.30
2022-12-23T13:11:59.939Z,12.40
2022-12-23T13:14:38.174Z,12.40
2022-12-23T13:17:14.207Z,12.40
2022-12-23T13:19:47.984Z,12.40
2022-12-23T13:22:21.852Z,12.40
2022-12-23T13:24:58.629Z,12.70
2022-12-23T13:27:33.882Z,12.40
2022-12-23T13:30:12.188Z,12.40
2022-12-23T13:33:18.894Z,12.40
2022-12-23T13:36:13.156Z,12.40
2022-12-23T13:39:00.105Z,12.40
2022-12-23T13:41:33.508Z,12.40
2022-12-23T13:44:05.209Z,12.40
2022-12-23T13:46:43.707Z,12.60
2022-12-23T13:49:22.320Z,12.50
2022-12-23T13:51:56.136Z,12.40
2022-12-23T13:54:32.659Z,12.60
2022-12-23T13:57:09.211Z,12.60
2022-12-23T13:59:43.070Z,12.50
2022-12-23T14:02:43.583Z,12.60
2022-12-23T14:05:33.732Z,12.60
2022-12-23T14:08:04.202Z,12.70
2022-12-23T14:10:32.655Z,12.60
2022-12-23T14:13:06.259Z,12.90
2022-12-23T14:16:01.593Z,12.60
2022-12-23T14:18:49.274Z,12.60
2022-12-23T14:21:29.997Z,12.60
2022-12-23T14:24:36.734Z,12.70
2022-12-23T14:27:31.904Z,12.60
2022-12-23T14:30:10.508Z,12.60
2022-12-23T14:32:48.327Z,12.60
2022-12-23T14:35:27.157Z,12.70
2022-12-23T14:38:28.848Z,12.70
2022-12-23T14:41:04.143Z,12.60
2022-12-23T14:43:51.203Z,12.60
2022-12-23T14:46:58.918Z,12.70
2022-12-23T14:49:45.056Z,12.70
2022-12-23T14:52:53.006Z,12.60
2022-12-23T14:55:45.256Z,12.60
2022-12-23T14:58:59.355Z,12.60
2022-12-23T15:01:35.229Z,12.60
2022-12-23T15:04:12.906Z,12.60
2022-12-23T15:06:42.984Z,12.60
2022-12-23T15:09:21.733Z,12.60
2022-12-23T15:11:53.486Z,12.70
2022-12-23T15:14:31.736Z,12.50
2022-12-23T15:16:59.858Z,12.60
2022-12-23T15:19:29.016Z,12.50
2022-12-23T15:22:19.929Z,12.60
2022-12-23T15:24:51.901Z,12.50
2022-12-23T15:27:28.319Z,12.50
2022-12-23T15:29:57.479Z,12.50
2022-12-23T15:32:27.275Z,12.50
2022-12-23T15:35:00.927Z,12.40
2022-12-23T15:37:30.400Z,12.50
2022-12-23T15:40:09.484Z,12.40
2022-12-23T15:42:48.277Z,12.50
2022-12-23T15:45:31.794Z,12.40
2022-12-23T15:47:59.894Z,12.50
2022-12-23T15:50:29.652Z,12.40
2022-12-23T15:53:00.665Z,12.50
2022-12-23T15:55:32.007Z,12.40
2022-12-23T15:58:03.369Z,12.40
2022-12-23T16:00:39.645Z,12.30
2022-12-23T16:03:15.448Z,12.40
2022-12-23T16:05:45.330Z,12.40
2022-12-23T16:08:28.944Z,12.40
2022-12-23T16:11:05.530Z,12.40
2022-12-23T16:13:35.189Z,12.30
2022-12-23T16:16:20.455Z,12.30
2022-12-23T16:18:50.836Z,12.30
2022-12-23T16:21:18.957Z,12.40
2022-12-23T16:23:51.443Z,12.30
2022-12-23T16:26:20.123Z,12.30
2022-12-23T16:28:52.027Z,12.30
2022-12-23T16:31:21.945Z,12.30
2022-12-23T16:33:52.440Z,12.30
2022-12-23T16:36:23.556Z,12.30
2022-12-23T16:38:53.436Z,12.30
2022-12-23T16:41:21.552Z,12.30
2022-12-23T16:43:52.699Z,12.30
2022-12-23T16:46:23.195Z,12.30
2022-12-23T16:48:55.494Z,12.30
2022-12-23T16:51:24.849Z,12.30
2022-12-23T16:53:56.387Z,12.40
2022-12-23T16:56:27.650Z,12.30
2022-12-23T16:58:59.675Z,12.30
2022-12-23T17:01:30.641Z,12.30
2022-12-23T17:03:58.739Z,12.30
2022-12-23T17:06:27.273Z,12.30
2022-12-23T17:08:56.794Z,12.30
2022-12-23T17:11:33.388Z,12.20
2022-12-23T17:14:06.746Z,12.20
2022-12-23T17:16:37.294Z,12.20
2022-12-23T17:19:05.709Z,12.20
2022-12-23T17:21:36.679Z,12.20
2022-12-23T17:24:07.733Z,12.30
2022-12-23T17:26:35.739Z,12.20
2022-12-23T17:29:05.941Z,12.10
2022-12-23T17:31:35.158Z,12.10
2022-12-23T17:34:03.848Z,12.20
2022-12-23T17:36:31.924Z,12.10
2022-12-23T17:38:59.967Z,12.10
2022-12-23T17:41:31.115Z,12.10
2022-12-23T17:44:00.063Z,12.10
2022-12-23T17:46:30.915Z,12.00
2022-12-23T17:48:59.333Z,11.90
2022-12-23T17:51:28.474Z,12.00
2022-12-23T17:53:58.180Z,12.10
2022-12-23T17:56:29.508Z,12.10
2022-12-23T17:58:57.587Z,12.10
2022-12-23T18:01:28.466Z,12.20
2022-12-23T18:03:59.547Z,12.20
2022-12-23T18:06:29.878Z,12.10
2022-12-23T18:08:57.896Z,12.20
2022-12-23T18:11:35.016Z,12.20
2022-12-23T18:14:04.575Z,12.10
2022-12-23T18:16:32.943Z,12.10
2022-12-23T18:19:02.351Z,12.10
2022-12-23T18:21:30.589Z,12.00
2022-12-23T18:24:00.723Z,12.00
2022-12-23T18:26:28.755Z,12.00
2022-12-23T18:28:56.860Z,12.00
2022-12-23T18:31:27.373Z,11.90
2022-12-23T18:33:55.958Z,11.90
2022-12-23T18:36:28.617Z,11.90
2022-12-23T18:38:57.370Z,11.90
2022-12-23T18:41:26.694Z,11.90
2022-12-23T18:43:55.448Z,12.00
2022-12-23T18:46:23.556Z,12.00
2022-12-23T18:48:51.758Z,12.00
2022-12-23T18:51:21.688Z,12.10
2022-12-23T18:53:51.245Z,12.10
2022-12-23T18:56:21.366Z,12.10
2022-12-23T18:58:49.888Z,12.00
2022-12-23T19:01:19.133Z,11.90
2022-12-23T19:03:47.571Z,11.90
2022-12-23T19:06:16.849Z,11.80
2022-12-23T19:08:45.504Z,11.70
2022-12-23T19:11:17.914Z,11.60
2022-12-23T19:13:46.242Z,11.50
2022-12-23T19:16:15.939Z,11.40
2022-12-23T19:18:44.122Z,11.30
2022-12-23T19:21:12.422Z,11.20
2022-12-23T19:23:41.665Z,11.20
2022-12-23T19:26:10.437Z,11.20
2022-12-23T19:28:41.509Z,11.20
2022-12-23T19:31:10.567Z,11.20
2022-12-23T19:33:39.004Z,11.20
2022-12-23T19:36:11.767Z,11.30
2022-12-23T19:38:40.525Z,11.30
2022-12-23T19:41:09.102Z,11.30
2022-12-23T19:43:39.731Z,11.20
2022-12-23T19:46:09.513Z,11.20
2022-12-23T19:48:38.046Z,11.10
2022-12-23T19:51:08.640Z,11.10
2022-12-23T19:53:40.104Z,11.00
2022-12-23T19:56:11.504Z,10.90
2022-12-23T19:58:42.694Z,10.80
2022-12-23T20:01:13.788Z,10.80
2022-12-23T20:03:43.422Z,10.80
2022-12-23T20:06:15.600Z,10.80
2022-12-23T20:08:45.039Z,10.90
2022-12-23T20:11:14.615Z,10.90
2022-12-23T20:13:44.649Z,11.00
2022-12-23T20:16:13.247Z,11.00
2022-12-23T20:18:43.691Z,11.00
2022-12-23T20:21:11.879Z,11.00
2022-12-23T20:23:40.166Z,11.10
2022-12-23T20:26:08.547Z,11.00
2022-12-23T20:28:36.952Z,11.00
2022-12-23T20:31:09.202Z,11.00
2022-12-23T20:33:38.079Z,11.00
2022-12-23T20:36:07.719Z,10.90
2022-12-23T20:38:36.720Z,10.90
2022-12-23T20:41:05.213Z,10.90
2022-12-23T20:43:34.554Z,10.90
2022-12-23T20:46:02.608Z,10.90
2022-12-23T20:48:34.276Z,10.90
2022-12-23T20:51:05.887Z,11.00
2022-12-23T20:53:34.423Z,11.00
2022-12-23T20:56:04.295Z,11.00
2022-12-23T20:58:55.408Z,11.00
2022-12-23T21:01:25.731Z,11.00
2022-12-23T21:03:55.615Z,11.00
2022-12-23T21:06:24.678Z,11.00
2022-12-23T21:08:55.718Z,11.10
2022-12-23T21:11:24.226Z,11.30
2022-12-23T21:13:52.693Z,11.10
2022-12-23T21:16:21.232Z,11.00
2022-12-23T21:18:53.233Z,11.20
2022-12-23T21:21:26.303Z,11.20
2022-12-23T21:23:55.798Z,11.20
2022-12-23T21:26:26.156Z,11.20
2022-12-23T21:28:55.814Z,11.20
2022-12-23T21:31:24.634Z,11.20
2022-12-23T21:33:54.202Z,11.30
2022-12-23T21:36:25.187Z,11.30
2022-12-23T21:38:53.850Z,11.20
2022-12-23T21:41:24.009Z,11.30
2022-12-23T21:43:52.244Z,11.20
2022-12-23T21:46:22.157Z,11.20
2022-12-23T21:48:51.008Z,11.20
2022-12-23T21:51:21.319Z,11.20
2022-12-23T21:53:54.037Z,11.20
2022-12-23T21:56:24.830Z,11.20
2022-12-23T21:58:56.064Z,11.20
2022-12-23T22:01:24.649Z,11.20
2022-12-23T22:03:52.964Z,11.30
2022-12-23T22:06:22.722Z,11.30
2022-12-23T22:08:53.478Z,11.30
2022-12-23T22:11:24.051Z,11.30
2022-12-23T22:13:52.347Z,11.40
2022-12-23T22:16:23.366Z,11.30
2022-12-23T22:18:52.028Z,11.30
2022-12-23T22:21:22.273Z,11.30
2022-12-23T22:23:52.674Z,11.30
2022-12-23T22:26:25.590Z,11.30
2022-12-23T22:28:55.225Z,11.30
2022-12-23T22:31:30.346Z,11.30
2022-12-23T22:33:58.876Z,11.30
2022-12-23T22:36:27.514Z,11.20
2022-12-23T22:38:58.333Z,11.20
2022-12-23T22:41:28.437Z,11.20
2022-12-23T22:43:56.896Z,11.20
2022-12-23T22:46:25.767Z,11.10
2022-12-23T22:48:54.283Z,11.00
2022-12-23T22:51:25.143Z,11.00
2022-12-23T22:53:53.412Z,11.00
2022-12-23T22:56:23.925Z,10.90
2022-12-23T22:58:53.540Z,10.90
2022-12-23T23:01:23.990Z,10.90
2022-12-23T23:03:57.100Z,10.90
2022-12-23T23:06:26.674Z,10.90
2022-12-23T23:08:55.578Z,10.90
2022-12-23T23:11:26.871Z,10.80
2022-12-23T23:13:56.227Z,10.90
2022-12-23T23:16:25.033Z,10.80
2022-12-23T23:18:54.361Z,10.80
2022-12-23T23:21:23.336Z,10.70
2022-12-23T23:23:51.775Z,10.70
2022-12-23T23:26:20.964Z,10.70
2022-12-23T23:28:50.493Z,10.70
2022-12-23T23:34:06.704Z,10.80
2022-12-23T23:36:34.764Z,10.70
2022-12-23T23:39:02.847Z,10.70
2022-12-23T23:41:30.845Z,10.60
2022-12-23T23:44:00.142Z,10.60
2022-12-23T23:46:28.860Z,10.60
2022-12-23T23:48:56.898Z,10.50
2022-12-23T23:51:25.105Z,10.50
2022-12-23T23:53:53.156Z,10.50
2022-12-23T23:56:25.732Z,10.50
2022-12-23T23:58:55.176Z,10.50
